createdAt,value
2022-08-19T00:01:30.202Z,1.93
2022-08-19T00:04:07.929Z,1.40
2022-08-19T00:06:36.239Z,1.58
2022-08-19T00:09:05.815Z,1.58
2022-08-19T00:11:32.855Z,1.73
2022-08-19T00:14:00.028Z,1.73
2022-08-19T00:16:27.207Z,1.20
2022-08-19T00:18:56.268Z,1.70
2022-08-19T00:21:24.626Z,1.73
2022-08-19T00:23:51.409Z,1.55
2022-08-19T00:26:17.821Z,1.60
2022-08-19T00:28:44.392Z,1.75
2022-08-19T00:31:11.547Z,0.90
2022-08-19T00:33:37.957Z,1.58
2022-08-19T00:36:07.258Z,1.55
2022-08-19T00:38:38.008Z,1.40
2022-08-19T00:41:06.446Z,1.40
2022-08-19T00:43:33.480Z,1.80
2022-08-19T00:46:00.245Z,1.55
2022-08-19T00:48:26.898Z,1.58
2022-08-19T00:50:55.339Z,1.57
2022-08-19T00:53:25.233Z,1.10
2022-08-19T00:55:55.778Z,1.33
2022-08-19T00:58:25.471Z,1.25
2022-08-19T01:00:51.989Z,1.58
2022-08-19T01:03:21.225Z,1.10
2022-08-19T01:05:49.959Z,1.20
2022-08-19T01:08:18.106Z,1.38
2022-08-19T01:10:49.648Z,1.88
2022-08-19T01:13:21.737Z,1.50
2022-08-19T01:15:54.556Z,1.43
2022-08-19T01:18:22.337Z,1.40
2022-08-19T01:20:49.354Z,1.65
2022-08-19T01:23:16.618Z,1.48
2022-08-19T01:25:48.275Z,1.40
2022-08-19T01:28:19.324Z,1.80
2022-08-19T01:31:00.156Z,1.42
2022-08-19T01:33:26.849Z,1.80
2022-08-19T01:35:53.525Z,1.75
2022-08-19T01:38:25.386Z,1.77
2022-08-19T01:40:52.417Z,2.00
2022-08-19T01:43:19.959Z,1.77
2022-08-19T01:45:47.353Z,1.88
2022-08-19T01:48:14.762Z,1.85
2022-08-19T01:50:41.454Z,1.50
2022-08-19T01:53:12.148Z,1.80
2022-08-19T01:55:42.485Z,1.73
2022-08-19T01:58:13.420Z,2.03
2022-08-19T02:00:40.394Z,2.05
2022-08-19T02:03:07.730Z,2.65
2022-08-19T02:05:34.170Z,2.00
2022-08-19T02:08:00.641Z,2.22
2022-08-19T02:10:27.397Z,2.05
2022-08-19T02:12:54.062Z,2.35
2022-08-19T02:15:21.900Z,1.95
2022-08-19T02:17:49.492Z,2.00
2022-08-19T02:20:16.323Z,1.90
2022-08-19T02:22:43.429Z,1.95
2022-08-19T02:25:14.388Z,2.00
2022-08-19T02:27:42.091Z,1.77
2022-08-19T02:30:13.908Z,1.90
2022-08-19T02:32:44.377Z,1.75
2022-08-19T02:35:13.104Z,2.15
2022-08-19T02:37:58.397Z,2.00
2022-08-19T02:40:24.890Z,2.55
2022-08-19T02:42:51.719Z,3.90
2022-08-19T02:45:18.501Z,4.80
2022-08-19T02:47:44.932Z,3.95
2022-08-19T02:50:11.683Z,3.97
2022-08-19T02:52:38.215Z,4.82
2022-08-19T02:55:06.047Z,4.07
2022-08-19T02:57:32.792Z,4.38
2022-08-19T03:00:00.035Z,5.82
2022-08-19T03:02:26.481Z,5.93
2022-08-19T03:04:52.889Z,5.13
2022-08-19T03:07:19.592Z,6.47
2022-08-19T03:09:46.836Z,4.90
2022-08-19T03:12:14.182Z,5.97
2022-08-19T03:14:40.608Z,5.00
2022-08-19T03:17:07.460Z,5.72
2022-08-19T03:19:34.021Z,4.77
2022-08-19T03:22:00.830Z,5.03
2022-08-19T03:24:27.508Z,4.30
2022-08-19T03:26:59.520Z,4.28
2022-08-19T03:29:30.916Z,3.95
2022-08-19T03:32:04.797Z,4.30
2022-08-19T03:34:33.151Z,3.67
2022-08-19T03:37:05.332Z,4.35
2022-08-19T03:39:32.072Z,4.15
2022-08-19T03:42:38.642Z,4.75
2022-08-19T03:44:48.815Z,4.43
2022-08-19T03:47:17.427Z,4.10
2022-08-19T03:49:44.361Z,3.83
2022-08-19T03:52:11.211Z,4.10
2022-08-19T03:54:39.506Z,3.50
2022-08-19T03:57:06.539Z,3.70
2022-08-19T03:59:36.473Z,3.83
2022-08-19T04:02:09.836Z,4.05
2022-08-19T04:04:38.393Z,4.10
2022-08-19T04:07:05.385Z,4.32
2022-08-19T04:09:32.488Z,3.77
2022-08-19T04:11:59.471Z,3.30
2022-08-19T04:14:31.281Z,3.38
2022-08-19T04:17:02.153Z,3.58
2022-08-19T04:19:31.503Z,4.18
2022-08-19T04:21:58.244Z,4.07
2022-08-19T04:24:25.329Z,4.10
2022-08-19T04:26:52.326Z,3.53
2022-08-19T04:29:22.709Z,4.30
2022-08-19T04:31:50.436Z,3.38
2022-08-19T04:34:18.852Z,3.23
2022-08-19T04:36:45.879Z,3.65
2022-08-19T04:39:16.591Z,3.78
2022-08-19T04:42:02.716Z,4.25
2022-08-19T04:44:33.121Z,4.45
2022-08-19T04:47:00.467Z,3.80
2022-08-19T04:49:28.159Z,4.03
2022-08-19T04:52:03.456Z,3.90
2022-08-19T04:54:38.879Z,4.82
2022-08-19T04:57:08.227Z,4.47
2022-08-19T04:59:35.550Z,3.57
2022-08-19T05:02:02.197Z,3.83
2022-08-19T05:04:33.686Z,4.03
2022-08-19T05:07:02.143Z,3.55
2022-08-19T05:09:36.151Z,4.32
2022-08-19T05:12:17.569Z,3.77
2022-08-19T05:14:46.972Z,3.05
2022-08-19T05:17:33.315Z,3.50
2022-08-19T05:20:19.155Z,3.60
2022-08-19T05:22:48.146Z,4.32
2022-08-19T05:25:20.047Z,4.13
2022-08-19T05:27:47.964Z,3.72
2022-08-19T05:30:15.117Z,3.45
2022-08-19T05:32:43.199Z,3.67
2022-08-19T05:35:10.676Z,3.47
2022-08-19T05:37:37.688Z,4.43
2022-08-19T05:40:05.140Z,4.30
2022-08-19T05:42:33.811Z,4.10
2022-08-19T05:45:07.639Z,4.05
2022-08-19T05:47:34.238Z,4.75
2022-08-19T05:50:02.741Z,5.20
2022-08-19T05:52:31.468Z,4.22
2022-08-19T05:54:58.275Z,5.32
2022-08-19T05:57:25.497Z,5.60
2022-08-19T05:59:53.179Z,5.45
2022-08-19T06:02:25.898Z,6.37
2022-08-19T06:04:52.600Z,7.88
2022-08-19T06:07:18.981Z,5.93
2022-08-19T06:12:29.759Z,8.15
2022-08-19T06:15:01.261Z,8.20
2022-08-19T06:17:31.007Z,8.35
2022-08-19T06:19:58.126Z,8.35
2022-08-19T06:22:24.868Z,9.05
2022-08-19T06:24:53.608Z,11.20
2022-08-19T06:27:21.030Z,11.10
2022-08-19T06:29:47.991Z,10.70
2022-08-19T06:32:17.233Z,13.02
2022-08-19T06:34:46.744Z,14.05
2022-08-19T06:37:13.472Z,14.68
2022-08-19T06:39:44.873Z,14.83
2022-08-19T06:42:17.792Z,16.80
2022-08-19T06:44:48.742Z,17.15
2022-08-19T06:47:23.930Z,17.05
2022-08-19T06:50:03.520Z,18.00
2022-08-19T06:52:36.734Z,18.73
2022-08-19T06:55:06.765Z,17.38
2022-08-19T06:57:34.396Z,15.95
2022-08-19T07:00:01.354Z,17.52
2022-08-19T07:02:27.769Z,18.95
2022-08-19T07:04:54.535Z,19.37
2022-08-19T07:07:23.350Z,20.52
2022-08-19T07:09:51.796Z,20.42
2022-08-19T07:12:27.527Z,19.30
2022-08-19T07:14:54.578Z,19.75
2022-08-19T07:17:21.871Z,20.50
2022-08-19T07:19:48.592Z,23.40
2022-08-19T07:22:15.946Z,22.10
2022-08-19T07:24:51.315Z,22.45
2022-08-19T07:27:24.268Z,21.90
2022-08-19T07:29:56.053Z,21.40
2022-08-19T07:32:27.803Z,22.17
2022-08-19T07:34:55.021Z,20.75
2022-08-19T07:37:23.217Z,21.00
2022-08-19T07:39:49.860Z,23.23
2022-08-19T07:42:16.316Z,23.00
2022-08-19T07:44:49.828Z,23.45
2022-08-19T07:47:49.645Z,23.33
2022-08-19T07:50:09.075Z,24.52
2022-08-19T07:52:37.183Z,22.90
2022-08-19T07:55:05.340Z,22.80
2022-08-19T07:57:32.121Z,22.50
2022-08-19T07:59:59.455Z,23.10
2022-08-19T08:02:26.047Z,22.30
2022-08-19T08:05:10.782Z,19.85
2022-08-19T08:07:55.706Z,18.20
2022-08-19T08:10:24.475Z,17.77
2022-08-19T08:12:58.380Z,16.85
2022-08-19T08:15:43.103Z,16.95
2022-08-19T08:18:11.492Z,15.93
2022-08-19T08:20:38.579Z,15.53
2022-08-19T08:23:23.262Z,15.40
2022-08-19T08:25:50.426Z,16.30
2022-08-19T08:28:18.994Z,17.00
2022-08-19T08:30:50.638Z,15.80
2022-08-19T08:33:34.216Z,16.07
2022-08-19T08:36:08.216Z,16.75
2022-08-19T08:38:43.029Z,15.98
2022-08-19T08:41:29.673Z,14.65
2022-08-19T08:43:58.161Z,14.32
2022-08-19T08:46:48.147Z,14.30
2022-08-19T08:49:29.869Z,12.90
2022-08-19T08:52:22.124Z,14.55
2022-08-19T08:54:55.307Z,13.27
2022-08-19T08:57:45.928Z,13.30
2022-08-19T09:00:21.962Z,12.77
2022-08-19T09:02:50.871Z,12.68
2022-08-19T09:05:22.370Z,13.45
2022-08-19T09:08:06.178Z,12.57
2022-08-19T09:10:44.234Z,12.27
2022-08-19T09:13:42.056Z,12.00
2022-08-19T09:16:14.099Z,12.77
2022-08-19T09:18:48.086Z,11.60
2022-08-19T09:21:16.314Z,12.68
2022-08-19T09:23:44.453Z,12.77
2022-08-19T09:26:16.455Z,11.67
2022-08-19T09:28:55.457Z,12.25
2022-08-19T09:31:27.876Z,12.35
2022-08-19T09:33:58.328Z,11.75
2022-08-19T09:36:34.610Z,11.32
2022-08-19T09:39:02.044Z,12.23
2022-08-19T09:41:29.793Z,10.68
2022-08-19T09:43:58.093Z,10.60
2022-08-19T09:46:28.260Z,11.27
2022-08-19T09:48:55.397Z,10.25
2022-08-19T09:51:25.560Z,10.60
2022-08-19T09:53:54.867Z,9.57
2022-08-19T09:56:22.968Z,8.88
2022-08-19T09:58:51.756Z,8.90
2022-08-19T10:01:25.084Z,8.13
2022-08-19T10:03:54.427Z,7.60
2022-08-19T10:06:44.131Z,8.95
2022-08-19T10:09:13.138Z,9.90
2022-08-19T10:11:51.228Z,9.10
2022-08-19T10:14:23.486Z,8.98
2022-08-19T10:16:52.499Z,8.47
2022-08-19T10:19:26.054Z,9.70
2022-08-19T10:21:53.676Z,9.18
2022-08-19T10:24:21.789Z,9.00
2022-08-19T10:26:57.189Z,10.23
2022-08-19T10:29:32.951Z,10.47
2022-08-19T10:32:03.126Z,10.70
2022-08-19T10:34:31.352Z,11.20
2022-08-19T10:37:00.822Z,10.63
2022-08-19T10:39:30.941Z,10.60
2022-08-19T10:41:57.853Z,10.90
2022-08-19T10:44:24.973Z,10.40
2022-08-19T10:47:00.028Z,10.13
2022-08-19T10:49:26.657Z,9.98
2022-08-19T10:52:19.081Z,11.90
2022-08-19T10:55:08.443Z,11.10
2022-08-19T11:00:24.216Z,12.57
2022-08-19T11:02:51.312Z,12.00
2022-08-19T11:05:18.980Z,12.80
2022-08-19T11:07:46.323Z,14.77
2022-08-19T11:10:18.339Z,14.15
2022-08-19T11:12:48.131Z,13.88
2022-08-19T11:15:14.975Z,14.45
2022-08-19T11:17:42.716Z,13.25
2022-08-19T11:20:10.192Z,15.07
2022-08-19T11:22:40.544Z,14.27
2022-08-19T11:25:10.288Z,14.70
2022-08-19T11:27:43.270Z,13.23
2022-08-19T11:30:12.903Z,14.90
2022-08-19T11:32:41.328Z,13.97
2022-08-19T11:35:12.066Z,13.77
2022-08-19T11:37:39.029Z,13.73
2022-08-19T11:40:07.093Z,13.93
2022-08-19T11:42:52.165Z,13.93
2022-08-19T11:45:18.890Z,14.57
2022-08-19T11:47:45.521Z,15.50
2022-08-19T11:50:12.202Z,12.82
2022-08-19T11:52:38.591Z,12.55
2022-08-19T11:55:06.428Z,13.60
2022-08-19T11:57:32.884Z,14.63
2022-08-19T11:59:59.351Z,14.15
2022-08-19T12:02:26.425Z,13.23
2022-08-19T12:04:52.887Z,11.93
2022-08-19T12:07:19.639Z,14.63
2022-08-19T12:09:46.131Z,15.53
2022-08-19T12:12:15.896Z,12.98
2022-08-19T12:14:42.664Z,15.40
2022-08-19T12:17:10.068Z,13.05
2022-08-19T12:19:38.337Z,15.23
2022-08-19T12:22:06.564Z,14.07
2022-08-19T12:24:34.080Z,11.82
2022-08-19T12:27:03.217Z,11.70
2022-08-19T12:29:30.572Z,13.23
2022-08-19T12:32:03.830Z,13.88
2022-08-19T12:34:31.816Z,12.60
2022-08-19T12:36:59.736Z,12.43
2022-08-19T12:39:26.678Z,13.07
2022-08-19T12:41:54.453Z,11.48
2022-08-19T12:44:24.859Z,11.73
2022-08-19T12:46:58.422Z,11.10
2022-08-19T12:49:52.269Z,12.15
2022-08-19T12:52:16.216Z,11.15
2022-08-19T12:54:44.127Z,10.45
2022-08-19T12:57:11.578Z,10.48
2022-08-19T12:59:38.851Z,11.47
2022-08-19T13:02:07.478Z,10.23
2022-08-19T13:04:41.463Z,10.63
2022-08-19T13:07:09.888Z,9.93
2022-08-19T13:09:36.331Z,10.63
2022-08-19T13:12:04.582Z,10.20
2022-08-19T13:14:32.855Z,11.93
2022-08-19T13:17:00.162Z,10.20
2022-08-19T13:19:27.437Z,10.45
2022-08-19T13:22:00.188Z,9.88
2022-08-19T13:24:32.741Z,9.30
2022-08-19T13:27:01.469Z,9.70
2022-08-19T13:29:46.355Z,9.25
2022-08-19T13:32:31.355Z,9.18
2022-08-19T13:34:57.824Z,9.77
2022-08-19T13:37:42.202Z,9.37
2022-08-19T13:40:19.232Z,8.77
2022-08-19T13:42:48.051Z,9.77
2022-08-19T13:45:16.533Z,8.85
2022-08-19T13:47:45.863Z,9.40
2022-08-19T13:50:14.455Z,8.93
2022-08-19T13:52:42.240Z,9.25
2022-08-19T13:55:09.801Z,10.07
2022-08-19T13:57:37.377Z,10.52
2022-08-19T14:00:06.325Z,12.82
2022-08-19T14:02:32.905Z,11.33
2022-08-19T14:04:59.756Z,9.13
2022-08-19T14:07:26.217Z,10.23
2022-08-19T14:09:58.397Z,9.20
2022-08-19T14:12:28.742Z,9.23
2022-08-19T14:14:55.772Z,8.83
2022-08-19T14:17:22.583Z,9.40
2022-08-19T14:19:49.220Z,9.45
2022-08-19T14:22:15.657Z,9.00
2022-08-19T14:24:49.167Z,8.73
2022-08-19T14:27:15.890Z,8.10
2022-08-19T14:29:42.648Z,8.00
2022-08-19T14:32:11.485Z,8.07
2022-08-19T14:34:43.259Z,7.82
2022-08-19T14:37:10.462Z,8.02
2022-08-19T14:39:42.111Z,8.20
2022-08-19T14:42:11.384Z,8.35
2022-08-19T14:44:38.811Z,8.63
2022-08-19T14:47:05.742Z,6.68
2022-08-19T14:49:35.240Z,7.65
2022-08-19T14:52:08.950Z,6.43
2022-08-19T14:54:35.395Z,6.40
2022-08-19T14:57:01.924Z,6.28
2022-08-19T14:59:28.811Z,5.40
2022-08-19T15:01:55.389Z,5.15
2022-08-19T15:04:21.977Z,4.47
2022-08-19T15:06:48.561Z,5.20
2022-08-19T15:09:15.050Z,4.35
2022-08-19T15:11:41.459Z,4.20
2022-08-19T15:14:08.065Z,4.25
2022-08-19T15:16:34.722Z,4.30
2022-08-19T15:19:01.200Z,4.32
2022-08-19T15:21:29.206Z,4.05
2022-08-19T15:23:57.731Z,4.55
2022-08-19T15:26:25.653Z,4.15
2022-08-19T15:28:52.544Z,4.10
2022-08-19T15:31:25.128Z,4.00
2022-08-19T15:33:58.065Z,4.13
2022-08-19T15:36:26.197Z,3.50
2022-08-19T15:38:53.322Z,4.05
2022-08-19T15:41:26.545Z,4.13
2022-08-19T15:44:01.739Z,3.72
2022-08-19T15:46:31.096Z,3.50
2022-08-19T15:49:00.070Z,3.38
2022-08-19T15:51:31.708Z,3.22
2022-08-19T15:53:59.947Z,3.13
2022-08-19T15:56:27.465Z,3.20
2022-08-19T15:59:12.497Z,3.70
2022-08-19T16:01:57.670Z,3.00
2022-08-19T16:04:42.984Z,2.95
2022-08-19T16:07:10.197Z,3.33
2022-08-19T16:09:36.597Z,3.75
2022-08-19T16:12:05.828Z,3.38
2022-08-19T16:14:34.069Z,3.58
2022-08-19T16:17:00.640Z,3.70
2022-08-19T16:19:27.313Z,3.80
2022-08-19T16:21:55.960Z,3.83
2022-08-19T16:24:26.184Z,3.28
2022-08-19T16:26:53.028Z,3.72
2022-08-19T16:29:27.792Z,4.25
2022-08-19T16:32:05.489Z,4.07
2022-08-19T16:34:33.679Z,4.30
2022-08-19T16:37:00.510Z,4.50
2022-08-19T16:39:26.952Z,4.85
2022-08-19T16:41:53.594Z,3.92
2022-08-19T16:44:20.917Z,3.67
2022-08-19T16:46:58.309Z,3.92
2022-08-19T16:49:54.077Z,4.68
2022-08-19T16:52:14.723Z,4.75
2022-08-19T16:54:43.674Z,4.35
2022-08-19T17:00:08.692Z,4.10
2022-08-19T17:02:35.296Z,4.30
2022-08-19T17:05:01.979Z,4.05
2022-08-19T17:07:29.435Z,5.47
2022-08-19T17:10:00.006Z,5.47
2022-08-19T17:12:30.166Z,5.40
2022-08-19T17:14:58.532Z,5.82
2022-08-19T17:17:28.895Z,6.15
2022-08-19T17:19:55.699Z,6.32
2022-08-19T17:22:22.166Z,5.10
2022-08-19T17:24:48.724Z,4.43
2022-08-19T17:27:15.160Z,4.18
2022-08-19T17:29:45.078Z,4.10
2022-08-19T17:32:13.691Z,4.10
2022-08-19T17:34:40.092Z,4.13
2022-08-19T17:37:06.523Z,4.03
2022-08-19T17:39:33.281Z,3.75
2022-08-19T17:42:12.274Z,2.70
2022-08-19T17:44:38.737Z,3.40
2022-08-19T17:47:14.364Z,2.90
2022-08-19T17:49:40.871Z,2.78
2022-08-19T17:52:10.098Z,3.22
2022-08-19T17:54:37.020Z,3.13
2022-08-19T17:57:03.694Z,3.40
2022-08-19T17:59:30.435Z,2.60
2022-08-19T18:01:57.904Z,3.05
2022-08-19T18:04:25.790Z,2.95
2022-08-19T18:06:55.164Z,2.75
2022-08-19T18:09:42.333Z,2.25
2022-08-19T18:12:12.712Z,2.93
2022-08-19T18:14:41.106Z,2.28
2022-08-19T18:17:10.804Z,2.25
2022-08-19T18:19:41.653Z,2.55
2022-08-19T18:22:22.603Z,2.50
2022-08-19T18:24:49.414Z,2.40
2022-08-19T18:27:16.009Z,1.88
2022-08-19T18:29:43.491Z,2.05
2022-08-19T18:32:12.998Z,2.42
2022-08-19T18:34:41.918Z,2.40
2022-08-19T18:37:08.769Z,2.30
2022-08-19T18:39:54.081Z,2.30
2022-08-19T18:42:38.946Z,2.50
2022-08-19T18:45:25.299Z,1.80
2022-08-19T18:48:25.832Z,1.80
2022-08-19T18:50:53.735Z,1.50
2022-08-19T18:53:20.326Z,1.10
2022-08-19T18:55:49.607Z,0.98
2022-08-19T18:58:16.005Z,1.10
2022-08-19T19:00:44.063Z,0.90
2022-08-19T19:03:11.615Z,1.20
2022-08-19T19:05:42.979Z,0.82
2022-08-19T19:08:09.694Z,1.02
2022-08-19T19:10:36.371Z,1.00
2022-08-19T19:13:05.509Z,0.80
2022-08-19T19:15:32.806Z,0.90
2022-08-19T19:18:09.642Z,0.93
2022-08-19T19:20:36.475Z,1.17
2022-08-19T19:23:03.707Z,0.85
2022-08-19T19:25:50.577Z,0.70
2022-08-19T19:28:17.028Z,0.97
2022-08-19T19:30:43.475Z,1.05
2022-08-19T19:33:09.875Z,0.80
2022-08-19T19:35:36.448Z,0.90
2022-08-19T19:38:02.926Z,1.02
2022-08-19T19:40:29.904Z,1.00
2022-08-19T19:42:56.412Z,1.00
2022-08-19T19:45:23.316Z,1.10
2022-08-19T19:47:50.065Z,1.15
2022-08-19T19:50:17.606Z,1.08
2022-08-19T19:52:46.031Z,1.03
2022-08-19T19:55:17.986Z,0.85
2022-08-19T19:57:46.142Z,1.02
2022-08-19T20:00:15.084Z,1.05
2022-08-19T20:02:46.653Z,1.08
2022-08-19T20:05:16.460Z,1.00
2022-08-19T20:08:01.401Z,1.30
2022-08-19T20:10:28.080Z,1.27
2022-08-19T20:12:55.047Z,1.13
2022-08-19T20:15:24.274Z,1.27
2022-08-19T20:17:51.219Z,1.30
2022-08-19T20:20:19.335Z,1.70
2022-08-19T20:22:47.625Z,1.65
2022-08-19T20:25:17.557Z,1.63
2022-08-19T20:27:48.637Z,1.60
2022-08-19T20:30:19.874Z,1.60
2022-08-19T20:32:48.347Z,1.80
2022-08-19T20:35:18.282Z,1.85
2022-08-19T20:37:44.761Z,1.75
2022-08-19T20:40:14.285Z,2.13
2022-08-19T20:42:42.330Z,1.60
2022-08-19T20:45:32.411Z,1.77
2022-08-19T20:47:57.689Z,2.10
2022-08-19T20:50:24.188Z,1.70
2022-08-19T20:52:53.675Z,2.40
2022-08-19T20:55:21.928Z,1.80
2022-08-19T20:57:48.396Z,1.70
2022-08-19T21:00:15.248Z,1.92
2022-08-19T21:02:41.732Z,1.88
2022-08-19T21:05:08.296Z,2.47
2022-08-19T21:07:39.156Z,1.97
2022-08-19T21:10:06.948Z,1.95
2022-08-19T21:12:33.741Z,1.73
2022-08-19T21:15:00.158Z,1.73
2022-08-19T21:17:26.519Z,2.10
2022-08-19T21:19:52.959Z,2.27
2022-08-19T21:22:19.450Z,2.28
2022-08-19T21:24:45.877Z,2.25
2022-08-19T21:27:12.468Z,2.40
2022-08-19T21:29:40.478Z,2.25
2022-08-19T21:32:07.069Z,2.37
2022-08-19T21:34:33.541Z,2.60
2022-08-19T21:37:00.136Z,2.80
2022-08-19T21:39:26.752Z,3.20
2022-08-19T21:41:53.155Z,2.40
2022-08-19T21:44:19.737Z,2.00
2022-08-19T21:46:50.579Z,2.58
2022-08-19T21:49:17.333Z,2.72
2022-08-19T21:51:44.141Z,3.63
2022-08-19T21:54:14.175Z,2.75
2022-08-19T21:56:41.360Z,3.33
2022-08-19T21:59:07.909Z,3.13
2022-08-19T22:01:34.849Z,3.35
2022-08-19T22:04:01.648Z,3.58
2022-08-19T22:06:29.305Z,3.78
2022-08-19T22:08:56.064Z,2.83
2022-08-19T22:11:26.923Z,3.17
2022-08-19T22:13:54.332Z,3.17
2022-08-19T22:16:21.035Z,4.28
2022-08-19T22:18:48.129Z,3.42
2022-08-19T22:21:14.821Z,3.33
2022-08-19T22:23:48.144Z,4.10
2022-08-19T22:26:16.811Z,3.22
2022-08-19T22:28:43.827Z,3.05
2022-08-19T22:31:11.335Z,3.17
2022-08-19T22:33:39.032Z,4.00
2022-08-19T22:36:07.651Z,4.18
2022-08-19T22:38:35.786Z,3.10
2022-08-19T22:41:02.590Z,4.28
2022-08-19T22:43:31.995Z,3.08
2022-08-19T22:45:59.957Z,2.77
2022-08-19T22:48:29.791Z,3.22
2022-08-19T22:51:16.639Z,3.22
2022-08-19T22:53:46.604Z,4.15
2022-08-19T22:56:15.670Z,4.05
2022-08-19T22:58:43.397Z,4.13
2022-08-19T23:01:11.594Z,3.88
2022-08-19T23:03:43.197Z,3.88
2022-08-19T23:06:10.205Z,3.10
2022-08-19T23:08:39.796Z,4.30
2022-08-19T23:11:06.845Z,3.30
2022-08-19T23:13:33.632Z,3.55
2022-08-19T23:16:00.193Z,3.28
2022-08-19T23:18:27.510Z,4.30
2022-08-19T23:20:54.616Z,4.15
2022-08-19T23:23:24.934Z,4.10
2022-08-19T23:25:56.262Z,3.47
2022-08-19T23:28:42.571Z,4.18
2022-08-19T23:31:09.699Z,4.38
2022-08-19T23:33:50.993Z,4.57
2022-08-19T23:36:19.666Z,4.17
2022-08-19T23:38:48.050Z,5.00
2022-08-19T23:41:16.482Z,5.15
2022-08-19T23:43:43.013Z,4.82
2022-08-19T23:46:12.254Z,5.20
2022-08-19T23:48:39.857Z,4.20
2022-08-19T23:51:09.512Z,4.82
2022-08-19T23:53:38.399Z,4.30
2022-08-19T23:56:07.275Z,4.60
2022-08-19T23:58:35.385Z,4.50
